Decoded Metar for YGFN ( in ) (IATA:) | Meteo·Mobile Aviation Weather
aviador You're here:

YGFN Decoded Metar

in
Report Time2019-05-19 22:00:00
UTC Time2019-05-19 23:10:43
Flight Rules Old
Wind210° at 04 kt
W.Decomp.*RWY 18: 3.5 kt HW 2.0 kt RCW
Visibility9999 m
Phenomena:N/A
Clouds:N/A
Expected CloudBase > 400 ft AGL from Temp-Dew spread
CeilingNone
Temp15°C
Dew Point14°C (94% RH)
AAT14.8°C
QNH1028 hPa
Raw Report
METAR YGFN 192200Z AUTO 21004KT 9999 // NCD 15/14 Q1028=

Extra information for YGFN:More info

Social comments